Alderson, OK (74522)

12:30 AM CDT on September 17, 2014 (GMT -0500)
Kinkead Hills | Change Station
CLOSE
Current Station
Personligvejrstation
Location: McAlester, OK
Højde: 808 ft
Vejrstationer i nærheden
4.0 Earthquake: Guthrie, Oklahoma (1 day ago)  

Elev 808 ft 34.90 °N, 95.73 °W | Updated 1 minute ago

Klart
Klart
70.9 ° F
Føles som 70.9 ° F
N
0.0
Vind Skiftende Vind ØSØ

I dag
Høj -- | Lav -- ° F
--% Risiko for nedbør
I går
Høj -- | Lav -- ° F
Precip. -- tommer
7:07 AM 7:26 PM
Sidste kvartal, 39% visible
Tryk 30.00 tommer
Sigtbarhed 7.0 mil
Skyer Klart
Dugpunkt 68 ° F
Luftfugtighed 89%
Regnmængde 0.00 tommer
Snedybde Ikke tilgængelig.
UV 0 fra 12
Pollen 9.90 fra 12
Luftkvalitet Ikke tilgængelig.
Flu Activity Ikke tilgængelig.
METAR KMLC 170453Z AUTO 00000KT 7SM CLR 23/22 A3003 RMK AO2 SLP159 T02280217

More Conditions Fewer Conditions

Tryk 30.00 tommer
Sigtbarhed 7.0 mil
Skyer Klart
Dugpunkt 68 ° F
Luftfugtighed 89%
Regnmængde 0.00 tommer
Snedybde Ikke tilgængelig.
UV 0 fra 12
Pollen 9.90 fra 12
Luftkvalitet Ikke tilgængelig.
Flu Activity Ikke tilgængelig.
METAR KMLC 170453Z AUTO 00000KT 7SM CLR 23/22 A3003 RMK AO2 SLP159 T02280217

More Conditions Fewer Conditions

10-Day Weather Forecast

Almanac

Astronomi

Sep. 17, 2014 Opgang Nedgang
Faktisktidspunkt 7:07 AM CDT 7:26 PM CDT
Civilttusmørke 6:41 AM CDT 7:51 PM CDT
Nautisktusmørke 6:12 AM CDT 8:21 PM CDT
Astronomisktusmørke 5:42 AM CDT 8:51 PM CDT
Måne 1:17 AM CDT 3:27 PM CDT
Synligtlys’ længde 13h 10m
Dagens længde
12h 19m
Tomorrow will be 2m 10s shorter.
Sidste kvartal, 39% of the Moon is Illuminated
I dag
Sidste kvartal
Sept. 24
Ny
Okt. 1
Første kvartal
Okt. 8
Fuldmåne
Okt. 15
Sidste kvartal

Ekstremer i dag

State Highs State Lows

Community

WunderPhotos

Upload Photos

1,753,968 Billeder uploaded!

Nearby

Snedybde

Station Depth Højde
Der er ikke rapporteret nogen ny sne.

Jordskælvsaktivitet

By Distance Mag. Time & Date
Perry, Oklahoma 132 mil 2.6 11:07 PM CDT
2014-09-16
Yale, Oklahoma 106 mil 2.5 9:31 AM CDT
2014-09-16
Yale, Oklahoma 106 mil 2.8 8:49 AM CDT
2014-09-16
Stillwater, Oklahoma 112 mil 2.5 8:38 AM CDT
2014-09-16
Minimum magnitude displayed is 2.5.

Kystnære vandtemperaturer

Sted Temperatur
Ingen stationer rapporterer

Vejrstationer i nærheden